Airport View

Enter AWOS ICAO identifier for current METAR.

ex. KFNL

K06D 200050Z AUTO 20007KT 10SM BKN042 M07/M13 A3014 RMK AO2

20 Oct 2020 00:50

Frequency: 118.125

Phone: 701-477-0055

Other Area AWOS: K9D7 - KRUG - CWPO - KD55

TAF KDVL 192331Z 2000/2024 VRB04KT P6SM FEW045 FM201300 13012KT P6SM OVC025 FM201500 13013G21KT 5SM -SN OVC017 FM201700 12014G22KT 3/4SM -SN OVC010